Time,TemperatureF,DewpointF,PressureIn,WindDirection,WindDirectionDegrees,WindSpeedMPH,WindSpeedGustMPH,Humidity,HourlyPrecipIn,Conditions,Clouds,dailyrainin,SolarRadiationWatts/m^2,SoftwareType,DateUTC
2013-01-12 00:02:00,58.0,53.0,-100.00,SSE,147,8.0,11.0,83,0.00,,,0.03,0.000000,,2013-01-12 10:02:00,
2013-01-12 00:11:00,58.0,53.0,-100.00,SSE,147,8.0,11.0,83,0.00,,,0.03,0.000000,,2013-01-12 10:11:00,
2013-01-12 00:22:00,58.0,53.0,-100.00,SSE,147,8.0,11.0,83,0.00,,,0.03,0.000000,,2013-01-12 10:22:00,
2013-01-12 00:32:00,58.0,53.0,-100.00,SSE,147,8.0,11.0,83,0.00,,,0.03,0.000000,,2013-01-12 10:32:00,
2013-01-12 00:52:00,56.0,51.0,-100.00,SSE,147,8.0,13.0,84,0.00,,,-99.99,0.000000,,2013-01-12 10:52:00,
2013-01-12 01:02:00,56.0,51.0,-100.00,SSE,147,8.0,13.0,84,0.00,,,-99.99,0.000000,,2013-01-12 11:02:00,
2013-01-12 01:12:00,56.0,51.0,-100.00,SSE,147,8.0,13.0,84,0.00,,,-99.99,0.000000,,2013-01-12 11:12:00,
2013-01-12 01:22:00,56.0,51.0,-100.00,SSE,147,8.0,13.0,84,0.00,,,-99.99,0.000000,,2013-01-12 11:22:00,
2013-01-12 01:32:00,56.0,51.0,-100.00,SSE,147,8.0,13.0,84,0.00,,,-99.99,0.000000,,2013-01-12 11:32:00,
2013-01-12 01:53:00,57.0,51.0,-100.00,SE,142,8.0,13.0,80,0.00,,,0.03,0.000000,,2013-01-12 11:53:00,
2013-01-12 02:02:00,57.0,51.0,-100.00,SE,142,8.0,13.0,80,0.00,,,0.03,0.000000,,2013-01-12 12:02:00,
2013-01-12 02:12:00,57.0,51.0,-100.00,SE,142,8.0,13.0,80,0.00,,,0.03,0.000000,,2013-01-12 12:12:00,
2013-01-12 02:22:00,57.0,51.0,-100.00,SE,142,8.0,13.0,80,0.00,,,0.03,0.000000,,2013-01-12 12:22:00,
2013-01-12 02:32:00,57.0,51.0,-100.00,SE,142,8.0,13.0,80,0.00,,,0.03,0.000000,,2013-01-12 12:32:00,
2013-01-12 03:02:00,55.0,48.0,-100.00,SE,142,7.0,10.0,76,0.00,,,0.03,0.000000,,2013-01-12 13:02:00,
2013-01-12 03:12:00,55.0,48.0,-100.00,SE,142,7.0,10.0,76,0.00,,,0.03,0.000000,,2013-01-12 13:12:00,
2013-01-12 03:22:00,55.0,48.0,-100.00,SE,142,7.0,10.0,76,0.00,,,0.03,0.000000,,2013-01-12 13:22:00,
2013-01-12 03:32:00,55.0,48.0,-100.00,SE,142,7.0,10.0,76,0.00,,,0.03,0.000000,,2013-01-12 13:32:00,
2013-01-12 03:53:00,56.0,51.0,-100.00,SE,139,7.0,10.0,82,0.00,,,0.03,0.000000,,2013-01-12 13:53:00,
2013-01-12 04:02:00,56.0,51.0,-100.00,SE,139,7.0,10.0,82,0.00,,,0.03,0.000000,,2013-01-12 14:02:00,
2013-01-12 04:12:00,56.0,51.0,-100.00,SE,139,7.0,10.0,82,0.00,,,0.03,0.000000,,2013-01-12 14:12:00,
2013-01-12 04:22:00,56.0,51.0,-100.00,SE,139,7.0,10.0,82,0.00,,,0.03,0.000000,,2013-01-12 14:22:00,
2013-01-12 04:32:00,56.0,51.0,-100.00,SE,139,7.0,10.0,82,0.00,,,0.03,0.000000,,2013-01-12 14:32:00,
2013-01-12 05:03:00,56.0,47.0,-100.00,SE,134,7.0,11.0,72,0.00,,,0.03,0.000000,,2013-01-12 15:03:00,
2013-01-12 05:12:00,56.0,47.0,-100.00,SE,134,7.0,11.0,72,0.00,,,0.03,0.000000,,2013-01-12 15:12:00,
2013-01-12 05:22:00,56.0,47.0,-100.00,SE,134,7.0,11.0,72,0.00,,,0.03,0.000000,,2013-01-12 15:22:00,
2013-01-12 05:33:00,56.0,47.0,-100.00,SE,134,7.0,11.0,72,0.00,,,0.03,0.000000,,2013-01-12 15:33:00,
2013-01-12 05:53:00,55.0,45.0,-100.00,SE,129,9.0,13.0,68,0.00,,,0.03,0.000000,,2013-01-12 15:53:00,
2013-01-12 06:03:00,55.0,45.0,-100.00,SE,129,9.0,13.0,68,0.00,,,0.03,0.000000,,2013-01-12 16:03:00,
2013-01-12 06:12:00,55.0,45.0,-100.00,SE,129,9.0,13.0,68,0.00,,,0.03,0.000000,,2013-01-12 16:12:00,
2013-01-12 06:22:00,55.0,45.0,-100.00,SE,129,9.0,13.0,68,0.00,,,0.03,0.000000,,2013-01-12 16:22:00,
2013-01-12 06:32:00,55.0,45.0,-100.00,SE,129,9.0,13.0,68,0.00,,,0.03,0.000000,,2013-01-12 16:32:00,
2013-01-12 06:53:00,54.0,44.0,-100.00,SE,136,10.0,15.0,69,0.00,,,0.03,0.000000,,2013-01-12 16:53:00,
2013-01-12 07:02:00,54.0,44.0,-100.00,SE,136,10.0,15.0,69,0.00,,,0.03,0.000000,,2013-01-12 17:02:00,
2013-01-12 07:12:00,54.0,44.0,-100.00,SE,136,10.0,15.0,69,0.00,,,0.03,0.000000,,2013-01-12 17:12:00,
2013-01-12 07:22:00,54.0,44.0,-100.00,SE,136,10.0,15.0,69,0.00,,,0.03,0.000000,,2013-01-12 17:22:00,
2013-01-12 07:32:00,54.0,44.0,-100.00,SE,136,10.0,15.0,69,0.00,,,0.03,0.000000,,2013-01-12 17:32:00,
2013-01-12 08:02:00,56.0,44.0,-100.00,SSE,148,11.0,14.0,65,0.00,,,0.03,21.000000,,2013-01-12 18:02:00,
2013-01-12 08:12:00,56.0,44.0,-100.00,SSE,148,11.0,14.0,65,0.00,,,0.03,21.000000,,2013-01-12 18:12:00,
2013-01-12 08:22:00,56.0,44.0,-100.00,SSE,148,11.0,14.0,65,0.00,,,0.03,21.000000,,2013-01-12 18:22:00,
2013-01-12 08:33:00,56.0,44.0,-100.00,SSE,148,11.0,14.0,65,0.00,,,0.03,21.000000,,2013-01-12 18:33:00,
2013-01-12 08:53:00,65.0,48.0,-100.00,SE,135,6.0,15.0,55,0.00,,,0.03,230.000000,,2013-01-12 18:53:00,
2013-01-12 09:03:00,65.0,48.0,-100.00,SE,135,6.0,15.0,55,0.00,,,0.03,230.000000,,2013-01-12 19:03:00,
2013-01-12 09:12:00,65.0,48.0,-100.00,SE,135,6.0,15.0,55,0.00,,,0.03,230.000000,,2013-01-12 19:12:00,
2013-01-12 09:22:00,65.0,48.0,-100.00,SE,135,6.0,15.0,55,0.00,,,0.03,230.000000,,2013-01-12 19:22:00,
2013-01-12 09:32:00,65.0,48.0,-100.00,SE,135,6.0,15.0,55,0.00,,,0.03,230.000000,,2013-01-12 19:32:00,
2013-01-12 10:02:00,71.0,50.0,-100.00,NNE,22,3.0,10.0,48,0.00,,,0.03,497.000000,,2013-01-12 20:02:00,
2013-01-12 10:12:00,71.0,50.0,-100.00,NNE,22,3.0,10.0,48,0.00,,,0.03,497.000000,,2013-01-12 20:12:00,
2013-01-12 10:22:00,71.0,50.0,-100.00,NNE,22,3.0,10.0,48,0.00,,,0.03,497.000000,,2013-01-12 20:22:00,
2013-01-12 10:32:00,71.0,50.0,-100.00,NNE,22,3.0,10.0,48,0.00,,,0.03,497.000000,,2013-01-12 20:32:00,
2013-01-12 10:53:00,77.0,50.0,-100.00,North,0,3.0,7.0,39,0.00,,,0.03,730.000000,,2013-01-12 20:53:00,
2013-01-12 11:02:00,77.0,50.0,-100.00,North,0,3.0,7.0,39,0.00,,,0.03,730.000000,,2013-01-12 21:02:00,
2013-01-12 11:12:00,77.0,50.0,-100.00,North,0,3.0,7.0,39,0.00,,,0.03,730.000000,,2013-01-12 21:12:00,
2013-01-12 11:22:00,77.0,50.0,-100.00,North,0,3.0,7.0,39,0.00,,,0.03,730.000000,,2013-01-12 21:22:00,
2013-01-12 11:32:00,77.0,50.0,-100.00,North,0,3.0,7.0,39,0.00,,,0.03,730.000000,,2013-01-12 21:32:00,
2013-01-12 11:53:00,75.0,53.0,-100.00,NW,315,5.0,13.0,47,0.00,,,0.03,895.000000,,2013-01-12 21:53:00,
2013-01-12 12:02:00,75.0,53.0,-100.00,NW,315,5.0,13.0,47,0.00,,,0.03,895.000000,,2013-01-12 22:02:00,
2013-01-12 12:12:00,75.0,53.0,-100.00,NW,315,5.0,13.0,47,0.00,,,0.03,895.000000,,2013-01-12 22:12:00,
2013-01-12 12:22:00,75.0,53.0,-100.00,NW,315,5.0,13.0,47,0.00,,,0.03,895.000000,,2013-01-12 22:22:00,
2013-01-12 12:32:00,75.0,53.0,-100.00,NW,315,5.0,13.0,47,0.00,,,0.03,895.000000,,2013-01-12 22:32:00,
2013-01-12 12:53:00,74.0,55.0,-100.00,WNW,299,7.0,14.0,51,0.00,,,0.03,987.000000,,2013-01-12 22:53:00,
2013-01-12 13:02:00,74.0,55.0,-100.00,WNW,299,7.0,14.0,51,0.00,,,0.03,987.000000,,2013-01-12 23:02:00,
2013-01-12 13:12:00,74.0,55.0,-100.00,WNW,299,7.0,14.0,51,0.00,,,0.03,987.000000,,2013-01-12 23:12:00,
2013-01-12 13:22:00,74.0,55.0,-100.00,WNW,299,7.0,14.0,51,0.00,,,0.03,987.000000,,2013-01-12 23:22:00,
2013-01-12 13:32:00,74.0,55.0,-100.00,WNW,299,7.0,14.0,51,0.00,,,0.03,987.000000,,2013-01-12 23:32:00,
2013-01-12 13:53:00,74.0,56.0,-100.00,NNW,332,7.0,14.0,54,0.00,,,0.03,970.000000,,2013-01-12 23:53:00,
2013-01-12 14:02:00,74.0,56.0,-100.00,NNW,332,7.0,14.0,54,0.00,,,0.03,970.000000,,2013-01-13 00:02:00,
2013-01-12 14:12:00,74.0,56.0,-100.00,NNW,332,7.0,14.0,54,0.00,,,0.03,970.000000,,2013-01-13 00:12:00,
2013-01-12 14:22:00,74.0,56.0,-100.00,NNW,332,7.0,14.0,54,0.00,,,0.03,970.000000,,2013-01-13 00:22:00,
2013-01-12 14:32:00,74.0,56.0,-100.00,NNW,332,7.0,14.0,54,0.00,,,0.03,970.000000,,2013-01-13 00:32:00,
2013-01-12 14:53:00,72.0,57.0,-100.00,NNW,327,8.0,14.0,59,0.00,,,0.03,524.000000,,2013-01-13 00:53:00,
2013-01-12 15:02:00,72.0,57.0,-100.00,NNW,327,8.0,14.0,59,0.00,,,0.03,524.000000,,2013-01-13 01:02:00,
2013-01-12 15:12:00,72.0,57.0,-100.00,NNW,327,8.0,14.0,59,0.00,,,0.03,524.000000,,2013-01-13 01:12:00,
2013-01-12 15:22:00,72.0,57.0,-100.00,NNW,327,8.0,14.0,59,0.00,,,0.03,524.000000,,2013-01-13 01:22:00,
2013-01-12 15:32:00,72.0,57.0,-100.00,NNW,327,8.0,14.0,59,0.00,,,0.03,524.000000,,2013-01-13 01:32:00,
2013-01-12 15:53:00,70.0,57.0,-100.00,NW,321,5.0,14.0,63,0.00,,,0.01,478.000000,,2013-01-13 01:53:00,
2013-01-12 16:02:00,70.0,57.0,-100.00,NW,321,5.0,14.0,63,0.00,,,0.01,478.000000,,2013-01-13 02:02:00,
2013-01-12 16:12:00,70.0,57.0,-100.00,NW,321,5.0,14.0,63,0.00,,,0.01,478.000000,,2013-01-13 02:12:00,
2013-01-12 16:22:00,70.0,57.0,-100.00,NW,321,5.0,14.0,63,0.00,,,0.01,478.000000,,2013-01-13 02:22:00,
2013-01-12 16:32:00,70.0,57.0,-100.00,NW,321,5.0,14.0,63,0.00,,,0.01,478.000000,,2013-01-13 02:32:00,
2013-01-12 16:53:00,69.0,60.0,-100.00,NW,324,6.0,12.0,73,0.00,,,0.00,190.000000,,2013-01-13 02:53:00,
2013-01-12 17:02:00,69.0,60.0,-100.00,NW,324,6.0,12.0,73,0.00,,,0.00,190.000000,,2013-01-13 03:02:00,
2013-01-12 17:12:00,69.0,60.0,-100.00,NW,324,6.0,12.0,73,0.00,,,0.00,190.000000,,2013-01-13 03:12:00,
2013-01-12 17:22:00,69.0,60.0,-100.00,NW,324,6.0,12.0,73,0.00,,,0.00,190.000000,,2013-01-13 03:22:00,
2013-01-12 17:32:00,69.0,60.0,-100.00,NW,324,6.0,12.0,73,0.00,,,0.00,190.000000,,2013-01-13 03:32:00,
2013-01-12 17:53:00,65.0,60.0,-100.00,NW,316,5.0,12.0,83,0.00,,,0.00,57.000000,,2013-01-13 03:53:00,
2013-01-12 18:02:00,65.0,60.0,-100.00,NW,316,5.0,12.0,83,0.00,,,0.00,57.000000,,2013-01-13 04:02:00,
2013-01-12 18:12:00,65.0,60.0,-100.00,NW,316,5.0,12.0,83,0.00,,,0.00,57.000000,,2013-01-13 04:12:00,
2013-01-12 18:22:00,65.0,60.0,-100.00,NW,316,5.0,12.0,83,0.00,,,0.00,57.000000,,2013-01-13 04:22:00,
2013-01-12 18:32:00,65.0,60.0,-100.00,NW,316,5.0,12.0,83,0.00,,,0.00,57.000000,,2013-01-13 04:32:00,
2013-01-12 18:53:00,64.0,60.0,-100.00,North,357,0.0,9.0,88,0.00,,,0.00,2.000000,,2013-01-13 04:53:00,
2013-01-12 19:03:00,64.0,60.0,-100.00,North,357,0.0,9.0,88,0.00,,,0.00,2.000000,,2013-01-13 05:03:00,
2013-01-12 19:12:00,64.0,60.0,-100.00,North,357,0.0,9.0,88,0.00,,,0.00,2.000000,,2013-01-13 05:12:00,
2013-01-12 19:22:00,64.0,60.0,-100.00,North,357,0.0,9.0,88,0.00,,,0.00,2.000000,,2013-01-13 05:22:00,
2013-01-12 19:32:00,64.0,60.0,-100.00,North,357,0.0,9.0,88,0.00,,,0.00,2.000000,,2013-01-13 05:32:00,
2013-01-12 20:02:00,65.0,62.0,-100.00,NE,38,0.0,4.0,90,0.00,,,0.00,0.000000,,2013-01-13 06:02:00,
2013-01-12 20:12:00,65.0,62.0,-100.00,NE,38,0.0,4.0,90,0.00,,,0.00,0.000000,,2013-01-13 06:12:00,
2013-01-12 20:22:00,65.0,62.0,-100.00,NE,38,0.0,4.0,90,0.00,,,0.00,0.000000,,2013-01-13 06:22:00,
2013-01-12 20:32:00,65.0,62.0,-100.00,NE,38,0.0,4.0,90,0.00,,,0.00,0.000000,,2013-01-13 06:32:00,
2013-01-12 21:02:00,61.0,59.0,-100.00,SSE,159,2.0,5.0,94,0.00,,,0.00,0.000000,,2013-01-13 07:02:00,
2013-01-12 21:12:00,61.0,59.0,-100.00,SSE,159,2.0,5.0,94,0.00,,,0.00,0.000000,,2013-01-13 07:12:00,
2013-01-12 21:22:00,61.0,59.0,-100.00,SSE,159,2.0,5.0,94,0.00,,,0.00,0.000000,,2013-01-13 07:22:00,
2013-01-12 21:32:00,61.0,59.0,-100.00,SSE,159,2.0,5.0,94,0.00,,,0.00,0.000000,,2013-01-13 07:32:00,
2013-01-12 22:02:00,61.0,58.0,-100.00,SSE,151,3.0,5.0,91,0.00,,,0.00,0.000000,,2013-01-13 08:02:00,
2013-01-12 22:11:00,61.0,58.0,-100.00,SSE,151,3.0,5.0,91,0.00,,,0.00,0.000000,,2013-01-13 08:11:00,
2013-01-12 22:22:00,61.0,58.0,-100.00,SSE,151,3.0,5.0,91,0.00,,,0.00,0.000000,,2013-01-13 08:22:00,
2013-01-12 22:32:00,61.0,58.0,-100.00,SSE,151,3.0,5.0,91,0.00,,,0.00,0.000000,,2013-01-13 08:32:00,
2013-01-12 22:53:00,59.0,56.0,-100.00,SE,138,5.0,6.0,91,0.00,,,0.00,0.000000,,2013-01-13 08:53:00,
2013-01-12 23:02:00,59.0,56.0,-100.00,SE,138,5.0,6.0,91,0.00,,,0.00,0.000000,,2013-01-13 09:02:00,
2013-01-12 23:12:00,59.0,56.0,-100.00,SE,138,5.0,6.0,91,0.00,,,0.00,0.000000,,2013-01-13 09:12:00,
2013-01-12 23:22:00,59.0,56.0,-100.00,SE,138,5.0,6.0,91,0.00,,,0.00,0.000000,,2013-01-13 09:22:00,
2013-01-12 23:32:00,59.0,56.0,-100.00,SE,138,5.0,6.0,91,0.00,,,0.00,0.000000,,2013-01-13 09:32:00,